Time;durP1;ratioP1;P1;durP2;ratioP2;P2;SDS_P1;SDS_P2;PMS_P1;PMS_P2;Temp;Humidity;BMP_temperature;BMP_pressure;BME280_temperature;BME280_humidity;BME280_pressure;Samples;Min_cycle;Max_cycle;Signal;HPM_P1;HPM_P2
2021/12/21 10:25:19;;;;;;;33.67;17.33;;;-0.70;99.90;;;;;;624455;24;20338;-86
2021/12/21 10:27:46;;;;;;;31.55;17.60;;;-0.60;99.90;;;;;;4746404;29;20062;-87
2021/12/21 10:30:16;;;;;;;31.20;18.33;;;-0.50;99.90;;;;;;4778804;29;20280;-86
2021/12/21 10:32:54;;;;;;;28.23;19.02;;;-0.30;99.90;;;;;;4780234;29;20261;-87
2021/12/21 10:35:28;;;;;;;33.40;19.13;;;-0.20;99.90;;;;;;4774384;29;20049;-87
2021/12/21 10:37:54;;;;;;;32.35;20.13;;;-0.20;99.90;;;;;;4760717;29;20158;-87
2021/12/21 10:40:28;;;;;;;35.60;19.17;;;-0.10;99.90;;;;;;4749287;29;20088;-86
2021/12/21 10:43:03;;;;;;;37.17;20.40;;;0.00;99.90;;;;;;4759810;29;20067;-85
2021/12/21 10:45:41;;;;;;;32.17;19.98;;;0.10;99.90;;;;;;4775332;29;20051;-85
2021/12/21 10:48:16;;;;;;;38.92;20.25;;;0.10;99.90;;;;;;4779285;29;20050;-84
2021/12/21 10:50:48;;;;;;;32.70;20.77;;;0.20;99.90;;;;;;4783104;29;20077;-85
2021/12/21 10:53:24;;;;;;;34.15;18.23;;;0.30;99.90;;;;;;4780520;29;20077;-85
2021/12/21 10:56:04;;;;;;;26.83;18.08;;;0.40;99.90;;;;;;4780877;29;21649;-85
2021/12/21 10:58:31;;;;;;;35.13;19.95;;;0.50;99.90;;;;;;4780378;29;20051;-85
2021/12/21 11:01:04;;;;;;;29.33;19.55;;;0.50;99.90;;;;;;4748248;29;20078;-85
2021/12/21 11:03:38;;;;;;;32.83;18.70;;;0.60;99.90;;;;;;4778922;29;20047;-84
2021/12/21 11:06:12;;;;;;;30.77;17.48;;;0.60;99.90;;;;;;4778958;29;20039;-85
2021/12/21 11:08:51;;;;;;;31.75;17.60;;;0.80;99.90;;;;;;4774423;29;20174;-85
2021/12/21 11:11:32;;;;;;;34.13;18.20;;;0.80;99.90;;;;;;4783139;29;20419;-85
2021/12/21 11:14:13;;;;;;;35.60;19.27;;;0.90;99.90;;;;;;4789632;29;20100;-85
2021/12/21 11:16:51;;;;;;;33.72;18.35;;;1.00;99.90;;;;;;4782167;29;20039;-86
2021/12/21 11:19:20;;;;;;;34.05;18.45;;;1.00;99.90;;;;;;4769687;29;20050;-84
2021/12/21 11:21:47;;;;;;;22.95;17.02;;;1.10;99.90;;;;;;4776181;29;20047;-85
2021/12/21 11:24:15;;;;;;;27.85;17.30;;;1.20;99.90;;;;;;4777642;29;20047;-85
2021/12/21 11:26:44;;;;;;;30.90;16.88;;;1.20;99.90;;;;;;4777285;29;20479;-85
2021/12/21 11:29:16;;;;;;;32.42;17.35;;;1.30;99.90;;;;;;4784485;29;20070;-84
2021/12/21 11:31:46;;;;;;;30.15;17.35;;;1.40;99.90;;;;;;4782873;29;20039;-84
2021/12/21 11:34:17;;;;;;;31.52;19.02;;;1.40;99.90;;;;;;4795806;29;20039;-85
2021/12/21 11:39:32;;;;;;;30.50;18.60;;;1.60;99.90;;;;;;4794935;29;20084;-85
2021/12/21 11:41:59;;;;;;;31.80;19.00;;;1.70;99.90;;;;;;4783306;29;20126;-85
2021/12/21 11:44:37;;;;;;;26.38;16.98;;;1.70;99.90;;;;;;4760490;29;20058;-87
2021/12/21 11:47:09;;;;;;;30.13;15.30;;;1.90;99.90;;;;;;4790813;29;20393;-88
2021/12/21 11:49:40;;;;;;;24.13;13.80;;;2.10;99.90;;;;;;4777360;29;20081;-88
2021/12/21 11:55:50;;;;;;;32.30;14.63;;;2.50;99.90;;;;;;4791795;29;20445;-87
2021/12/21 11:58:28;;;;;;;22.13;13.57;;;2.70;99.90;;;;;;4776219;29;20491;-87
2021/12/21 12:01:20;;;;;;;28.90;13.75;;;2.80;99.90;;;;;;4780749;29;20427;-87
2021/12/21 12:04:03;;;;;;;26.63;14.10;;;2.80;99.90;;;;;;4789098;29;20038;-87
2021/12/21 12:06:45;;;;;;;;;;;2.90;99.90;;;;;;4778433;29;20078;-87
2021/12/21 12:09:10;;;;;;;30.88;14.82;;;3.00;99.90;;;;;;4783597;29;20381;-88
2021/12/21 12:11:39;;;;;;;26.52;14.50;;;3.10;99.90;;;;;;4784682;29;20095;-87
2021/12/21 12:14:21;;;;;;;24.25;14.43;;;3.20;99.90;;;;;;4785072;29;20834;-86
2021/12/21 12:27:54;;;;;;;22.08;12.88;;;4.20;99.90;;;;;;4792100;29;20145;-86
2021/12/21 12:30:23;;;;;;;21.88;13.63;;;4.80;99.90;;;;;;4784753;29;20336;-87
2021/12/21 12:32:49;;;;;;;24.40;13.00;;;4.90;99.90;;;;;;4777153;29;20047;-88
2021/12/21 12:35:17;;;;;;;25.13;13.00;;;4.80;99.90;;;;;;4782650;29;20487;-87
2021/12/21 12:37:53;;;;;;;25.83;13.02;;;4.80;99.90;;;;;;4784502;29;20115;-86
2021/12/21 12:40:24;;;;;;;23.52;11.35;;;4.80;99.90;;;;;;4780987;29;20131;-87
2021/12/21 12:43:05;;;;;;;24.67;12.07;;;5.30;99.90;;;;;;4778642;29;20104;-88
2021/12/21 12:45:49;;;;;;;24.95;12.50;;;5.50;99.90;;;;;;4786757;29;20062;-87
2021/12/21 12:48:21;;;;;;;20.70;11.02;;;5.60;99.90;;;;;;4785449;29;20503;-87
2021/12/21 12:50:48;;;;;;;22.17;11.82;;;5.80;99.90;;;;;;4776805;29;20172;-86
2021/12/21 12:53:14;;;;;;;22.67;11.25;;;6.10;99.90;;;;;;4753723;29;20045;-87
2021/12/21 12:55:54;;;;;;;19.42;10.82;;;6.30;99.90;;;;;;4775317;29;20051;-86
2021/12/21 12:58:27;;;;;;;20.85;11.55;;;6.60;99.90;;;;;;4775710;29;20043;-87
2021/12/21 13:01:03;;;;;;;19.60;11.35;;;7.10;99.90;;;;;;4781000;29;20051;-87
2021/12/21 13:03:36;;;;;;;15.65;10.73;;;7.40;99.90;;;;;;4783735;29;20054;-88
2021/12/21 13:06:12;;;;;;;16.02;10.25;;;7.50;99.90;;;;;;4782587;29;20051;-87
2021/12/21 13:09:00;;;;;;;16.73;10.15;;;7.40;99.90;;;;;;4784006;29;20169;-87
2021/12/21 13:11:29;;;;;;;17.25;9.60;;;7.00;99.90;;;;;;4787539;29;20441;-87
2021/12/21 13:14:19;;;;;;;20.25;10.90;;;6.60;99.90;;;;;;4804814;29;20044;-87
2021/12/21 13:16:49;;;;;;;18.08;10.10;;;6.30;99.90;;;;;;4782881;29;20110;-86
2021/12/21 13:19:32;;;;;;;19.08;11.20;;;6.00;99.90;;;;;;4781596;29;20038;-87
2021/12/21 13:22:00;;;;;;;18.73;10.98;;;5.80;99.90;;;;;;4749491;29;20039;-87
2021/12/21 13:24:36;;;;;;;24.38;10.73;;;5.60;99.90;;;;;;4755985;29;20038;-88
2021/12/21 13:27:11;;;;;;;18.95;10.40;;;5.40;99.90;;;;;;4769258;29;20047;-87
2021/12/21 13:29:38;;;;;;;21.02;11.80;;;5.20;99.90;;;;;;4779067;29;20047;-87
2021/12/21 13:32:09;;;;;;;19.85;10.82;;;5.10;99.90;;;;;;4785071;29;20526;-87
2021/12/21 13:34:39;;;;;;;20.88;10.68;;;5.00;99.90;;;;;;4793745;29;20047;-87
2021/12/21 13:37:07;;;;;;;21.80;11.52;;;4.90;99.90;;;;;;4785861;29;20590;-87
2021/12/21 13:39:35;;;;;;;16.23;10.43;;;4.80;99.90;;;;;;4782032;29;20049;-88
2021/12/21 13:42:02;;;;;;;21.00;10.77;;;4.70;99.90;;;;;;4780304;29;20144;-87
2021/12/21 13:44:34;;;;;;;32.35;10.93;;;4.70;99.90;;;;;;4783247;29;20077;-87
2021/12/21 13:47:03;;;;;;;19.13;10.35;;;5.20;99.90;;;;;;4783320;29;20504;-87
2021/12/21 13:49:29;;;;;;;20.23;10.45;;;5.70;99.90;;;;;;4785258;29;20050;-88
2021/12/21 13:51:57;;;;;;;19.40;10.55;;;6.20;99.90;;;;;;4769257;29;20115;-87
2021/12/21 13:54:25;;;;;;;18.20;9.85;;;6.50;99.90;;;;;;4784112;29;20049;-87
2021/12/21 13:56:51;;;;;;;17.40;9.55;;;6.50;99.90;;;;;;4762803;29;20039;-87
2021/12/21 13:59:19;;;;;;;21.75;10.48;;;6.30;99.90;;;;;;4765688;29;20043;-88
2021/12/21 14:01:48;;;;;;;25.90;10.52;;;6.10;99.90;;;;;;4769088;29;20522;-86
2021/12/21 14:04:17;;;;;;;19.35;10.10;;;5.80;99.90;;;;;;4784579;29;20046;-87
2021/12/21 14:06:45;;;;;;;20.55;10.73;;;5.50;99.90;;;;;;4781819;29;20043;-88
2021/12/21 14:09:12;;;;;;;22.08;10.18;;;5.30;99.90;;;;;;4780521;29;20051;-87
2021/12/21 14:11:40;;;;;;;18.65;10.48;;;5.10;99.90;;;;;;4782830;29;20046;-87
2021/12/21 14:14:13;;;;;;;15.90;10.35;;;4.90;99.90;;;;;;4767815;29;20145;-87
2021/12/21 14:16:42;;;;;;;21.23;10.73;;;4.70;99.90;;;;;;4781541;29;20598;-88
2021/12/21 14:19:13;;;;;;;21.00;10.07;;;4.60;99.90;;;;;;4776329;29;20445;-87
2021/12/21 14:21:39;;;;;;;19.02;9.98;;;4.40;99.90;;;;;;4782652;29;20388;-87
2021/12/21 14:24:07;;;;;;;17.10;10.02;;;4.40;99.90;;;;;;4755433;29;20378;-87
2021/12/21 14:26:38;;;;;;;18.63;10.15;;;4.50;99.90;;;;;;4788766;29;20111;-87
2021/12/21 14:29:10;;;;;;;20.45;10.77;;;4.60;99.90;;;;;;4786724;29;20046;-87
2021/12/21 14:31:41;;;;;;;19.27;10.43;;;4.80;99.90;;;;;;4789083;29;20300;-88
2021/12/21 14:34:09;;;;;;;22.25;11.35;;;4.80;99.90;;;;;;4798808;29;20042;-87
2021/12/21 14:36:37;;;;;;;24.05;11.75;;;4.70;99.90;;;;;;4789962;29;20107;-86
2021/12/21 14:39:10;;;;;;;22.27;11.70;;;4.60;99.90;;;;;;4780926;29;20043;-87
2021/12/21 14:41:42;;;;;;;21.77;11.32;;;4.50;99.90;;;;;;4782780;29;20042;-87
2021/12/21 14:44:23;;;;;;;24.38;11.68;;;4.30;99.90;;;;;;4784342;29;20047;-86
2021/12/21 14:46:56;;;;;;;21.05;10.88;;;4.20;99.90;;;;;;4785421;29;20034;-87
2021/12/21 14:49:34;;;;;;;21.70;11.52;;;4.30;99.90;;;;;;4801429;29;20035;-86
2021/12/21 14:52:08;;;;;;;21.15;11.38;;;4.50;99.90;;;;;;4786863;29;20046;-86
2021/12/21 14:54:55;;;;;;;18.65;10.45;;;4.60;99.90;;;;;;4780981;29;20044;-86
2021/12/21 14:57:59;;;;;;;19.95;10.65;;;4.50;99.90;;;;;;4787129;29;20049;-87
2021/12/21 15:00:32;;;;;;;21.05;12.02;;;4.30;99.90;;;;;;4785724;29;20050;-86
2021/12/21 15:03:01;;;;;;;24.45;12.02;;;4.00;99.90;;;;;;4784960;29;20039;-88
2021/12/21 15:05:28;;;;;;;21.85;12.93;;;3.80;99.90;;;;;;4785796;29;20146;-86
2021/12/21 15:07:55;;;;;;;17.17;11.25;;;3.60;99.90;;;;;;4786034;29;20131;-87
2021/12/21 15:10:23;;;;;;;20.45;12.20;;;3.40;99.90;;;;;;4781483;29;20049;-86
2021/12/21 15:12:49;;;;;;;16.83;11.27;;;3.20;99.90;;;;;;4771677;29;20141;-86
2021/12/21 15:15:18;;;;;;;17.45;10.68;;;3.10;99.90;;;;;;4785536;29;20084;-87
2021/12/21 15:17:45;;;;;;;19.55;11.93;;;2.90;99.90;;;;;;4783442;29;20514;-87
2021/12/21 15:20:11;;;;;;;21.45;12.52;;;2.70;99.90;;;;;;4788205;29;20039;-87
2021/12/21 15:22:39;;;;;;;25.25;12.25;;;2.60;99.90;;;;;;4763797;29;20042;-86
2021/12/21 15:25:06;;;;;;;23.73;12.82;;;2.50;99.90;;;;;;4795209;29;20039;-87
2021/12/21 15:27:32;;;;;;;22.73;11.90;;;2.30;99.90;;;;;;4792293;29;20046;-86
2021/12/21 15:29:58;;;;;;;20.83;11.95;;;2.20;99.90;;;;;;4757198;29;20070;-86
2021/12/21 15:32:26;;;;;;;23.05;12.25;;;2.10;99.90;;;;;;4785518;29;20491;-86
2021/12/21 15:34:52;;;;;;;24.85;12.57;;;2.00;99.90;;;;;;4764206;29;20501;-86
2021/12/21 15:37:18;;;;;;;20.15;11.30;;;1.90;99.90;;;;;;4783403;29;20069;-86
2021/12/21 15:39:44;;;;;;;20.77;11.95;;;1.80;99.90;;;;;;4784030;29;20043;-86
2021/12/21 15:42:14;;;;;;;22.33;11.57;;;1.70;99.90;;;;;;4769030;29;20047;-87
2021/12/21 15:44:46;;;;;;;19.70;12.10;;;1.60;99.90;;;;;;4782912;29;20133;-86
2021/12/21 15:47:14;;;;;;;20.63;13.60;;;1.50;99.90;;;;;;4781691;29;20503;-86
2021/12/21 15:49:40;;;;;;;23.30;13.48;;;1.40;99.90;;;;;;4772770;29;20043;-86
2021/12/21 15:52:07;;;;;;;23.40;14.07;;;1.30;99.90;;;;;;4769061;29;20104;-86
2021/12/21 15:54:34;;;;;;;18.85;11.40;;;1.20;99.90;;;;;;4769735;29;20050;-86
2021/12/21 15:57:00;;;;;;;31.02;14.43;;;1.10;99.90;;;;;;4766486;29;20063;-87
2021/12/21 15:59:26;;;;;;;28.63;15.02;;;1.00;99.90;;;;;;4784785;29;20555;-87
2021/12/21 16:01:52;;;;;;;28.65;14.27;;;0.90;99.90;;;;;;4774523;29;20042;-86
2021/12/21 16:04:19;;;;;;;24.75;13.15;;;0.90;99.90;;;;;;4794846;29;20395;-87
2021/12/21 16:06:47;;;;;;;26.15;13.05;;;0.80;99.90;;;;;;4789410;29;20359;-87
2021/12/21 16:09:13;;;;;;;25.02;14.18;;;0.70;99.90;;;;;;4782246;29;20035;-87
2021/12/21 16:11:39;;;;;;;22.60;14.55;;;0.60;99.90;;;;;;4780702;29;20258;-87
2021/12/21 16:14:06;;;;;;;28.58;14.00;;;0.50;99.90;;;;;;4787943;29;20106;-87
2021/12/21 16:16:33;;;;;;;26.50;14.15;;;0.50;99.90;;;;;;4782806;29;20047;-87
2021/12/21 16:19:00;;;;;;;25.85;14.48;;;0.40;99.90;;;;;;4785374;29;20035;-87
2021/12/21 16:21:27;;;;;;;25.80;14.63;;;0.40;99.90;;;;;;4780626;29;20047;-87
2021/12/21 16:23:53;;;;;;;29.48;14.02;;;0.30;99.90;;;;;;4773773;29;20051;-87
2021/12/21 16:26:19;;;;;;;26.42;14.23;;;0.30;99.90;;;;;;4786448;29;20088;-86
2021/12/21 16:28:45;;;;;;;25.08;15.35;;;0.20;99.90;;;;;;4781922;29;20479;-87
2021/12/21 16:31:18;;;;;;;25.23;13.52;;;0.20;99.90;;;;;;4785008;29;20034;-87
2021/12/21 16:33:49;;;;;;;26.40;15.68;;;0.10;99.90;;;;;;4786823;29;20054;-87
2021/12/21 16:36:17;;;;;;;22.33;13.50;;;0.00;99.90;;;;;;4786083;29;20043;-87
2021/12/21 16:38:44;;;;;;;27.98;17.15;;;0.00;99.90;;;;;;4782399;29;20146;-86
2021/12/21 16:41:10;;;;;;;22.45;14.82;;;-0.10;99.90;;;;;;4764712;29;20047;-87
2021/12/21 16:43:37;;;;;;;32.75;17.23;;;0.00;99.90;;;;;;4783054;29;20058;-88
2021/12/21 16:46:10;;;;;;;30.65;15.52;;;-0.20;99.90;;;;;;4780809;29;20053;-87
2021/12/21 16:48:38;;;;;;;24.80;14.80;;;-0.20;99.90;;;;;;4778434;29;20043;-87
2021/12/21 16:51:05;;;;;;;24.42;13.73;;;-0.30;99.90;;;;;;4776959;29;20035;-87
2021/12/21 16:53:31;;;;;;;28.42;13.98;;;-0.30;99.90;;;;;;4774120;29;20109;-87
2021/12/21 16:55:58;;;;;;;30.73;16.00;;;-0.40;99.90;;;;;;4765400;29;20057;-88
2021/12/21 16:58:25;;;;;;;30.30;17.23;;;-0.30;99.90;;;;;;4762588;29;20043;-87
2021/12/21 17:00:53;;;;;;;35.28;16.17;;;-0.50;99.90;;;;;;4766549;29;20143;-88
2021/12/21 17:03:19;;;;;;;30.75;16.45;;;-0.50;99.90;;;;;;4780642;29;20286;-88
2021/12/21 17:05:46;;;;;;;27.27;15.75;;;-0.50;99.90;;;;;;4768897;29;20129;-88
2021/12/21 17:08:16;;;;;;;32.15;16.25;;;-0.60;99.90;;;;;;4786161;29;20569;-87
2021/12/21 17:10:46;;;;;;;33.90;18.05;;;-0.60;99.90;;;;;;4778590;29;20116;-88
2021/12/21 17:13:17;;;;;;;36.25;17.33;;;-0.70;99.90;;;;;;4781089;29;20034;-87
2021/12/21 17:15:43;;;;;;;29.63;17.90;;;-0.70;99.90;;;;;;4795192;29;20047;-88
2021/12/21 17:18:09;;;;;;;36.75;18.92;;;-0.70;99.90;;;;;;4768203;29;20050;-88
2021/12/21 17:20:35;;;;;;;34.00;19.60;;;-0.80;99.90;;;;;;4786255;29;20503;-88
2021/12/21 17:23:01;;;;;;;41.25;19.98;;;-0.80;99.90;;;;;;4774145;29;20053;-88
2021/12/21 17:25:27;;;;;;;35.72;19.88;;;-0.80;99.90;;;;;;4761806;29;20211;-88
2021/12/21 17:27:56;;;;;;;37.15;21.15;;;-0.80;99.90;;;;;;4774510;29;20123;-88
2021/12/21 17:30:22;;;;;;;37.13;20.90;;;-0.90;99.90;;;;;;4784792;29;20035;-88
2021/12/21 17:32:48;;;;;;;36.53;21.85;;;-0.90;99.90;;;;;;4789607;29;20494;-88
2021/12/21 17:35:16;;;;;;;40.45;22.30;;;-0.90;99.90;;;;;;4787966;29;20046;-87
2021/12/21 17:37:44;;;;;;;37.85;21.27;;;-1.00;99.90;;;;;;4763103;29;20106;-88
2021/12/21 17:40:13;;;;;;;41.78;22.52;;;-1.00;99.90;;;;;;4778671;29;20137;-89
2021/12/21 17:42:40;;;;;;;39.75;20.85;;;-1.10;99.90;;;;;;4783893;29;20050;-88
2021/12/21 17:45:07;;;;;;;46.05;23.60;;;-1.10;99.90;;;;;;4769706;29;20062;-88
2021/12/21 17:47:33;;;;;;;35.88;20.63;;;-1.10;99.90;;;;;;4764553;29;20089;-88
2021/12/21 17:50:00;;;;;;;39.38;22.60;;;-1.10;99.90;;;;;;4782703;29;20071;-88
2021/12/21 17:52:29;;;;;;;38.22;21.17;;;-1.10;99.90;;;;;;4778046;29;20122;-88
2021/12/21 17:54:55;;;;;;;43.20;22.77;;;-1.10;99.90;;;;;;4754979;29;20221;-88
2021/12/21 17:57:21;;;;;;;43.47;21.95;;;-1.20;99.90;;;;;;4753054;29;20051;-88
2021/12/21 17:59:49;;;;;;;37.33;21.40;;;-1.10;99.90;;;;;;4768703;29;20046;-89
2021/12/21 18:02:16;;;;;;;45.67;23.42;;;-1.20;99.90;;;;;;4782238;29;20130;-88
2021/12/21 18:04:43;;;;;;;45.30;26.38;;;-1.20;99.90;;;;;;4781830;29;20050;-89
2021/12/21 18:07:12;;;;;;;43.30;25.35;;;-1.20;99.90;;;;;;4782665;29;20047;-89
2021/12/21 18:09:39;;;;;;;43.65;25.33;;;-1.20;99.90;;;;;;4764132;29;20061;-89
2021/12/21 18:12:06;;;;;;;44.53;23.98;;;-1.20;99.90;;;;;;4777293;29;20039;-89
2021/12/21 18:14:35;;;;;;;45.67;24.88;;;-1.30;99.90;;;;;;4781067;29;20126;-89
2021/12/21 18:17:05;;;;;;;42.75;23.67;;;-1.30;99.90;;;;;;4784158;29;20038;-90
2021/12/21 18:19:33;;;;;;;42.90;23.88;;;-1.30;99.90;;;;;;4789357;29;20081;-90
2021/12/21 18:22:04;;;;;;;53.97;29.25;;;-1.30;99.90;;;;;;4783315;29;20038;-89
2021/12/21 18:24:33;;;;;;;60.55;29.92;;;-1.30;99.90;;;;;;4785836;29;20571;-88
2021/12/21 18:27:02;;;;;;;49.83;27.85;;;-1.30;99.90;;;;;;4769880;29;20599;-90
2021/12/21 18:29:30;;;;;;;47.10;27.40;;;-1.30;99.90;;;;;;4766453;29;20051;-89
2021/12/21 18:31:57;;;;;;;49.90;27.30;;;-1.40;99.90;;;;;;4760163;29;20400;-89
2021/12/21 18:34:27;;;;;;;50.17;25.95;;;-1.30;99.90;;;;;;4767635;29;20547;-89
2021/12/21 18:36:55;;;;;;;42.50;25.80;;;-1.40;99.90;;;;;;4784392;29;20503;-90
2021/12/21 18:39:25;;;;;;;52.05;25.98;;;-1.40;99.90;;;;;;4779068;29;20054;-90
2021/12/21 18:41:51;;;;;;;47.22;25.55;;;-1.50;99.90;;;;;;4785618;29;20492;-90
2021/12/21 18:44:17;;;;;;;51.28;25.35;;;-1.50;99.90;;;;;;4783097;29;20083;-89
2021/12/21 18:46:44;;;;;;;50.97;25.70;;;-1.60;99.90;;;;;;4782184;29;20150;-90
2021/12/21 18:49:14;;;;;;;53.92;26.35;;;-1.50;99.90;;;;;;4774105;29;20125;-89
2021/12/21 18:51:47;;;;;;;48.92;26.77;;;-1.50;99.90;;;;;;4768198;29;20491;-89
2021/12/21 18:54:13;;;;;;;48.92;26.50;;;-1.50;99.90;;;;;;4770180;29;20046;-89
2021/12/21 18:56:45;;;;;;;63.60;29.63;;;-1.50;99.90;;;;;;4785117;29;20054;-90
2021/12/21 18:59:14;;;;;;;51.83;29.20;;;-1.50;99.90;;;;;;4795347;29;20529;-90
2021/12/21 19:01:42;;;;;;;55.63;29.70;;;-1.50;99.90;;;;;;4779338;29;20047;-89
2021/12/21 19:04:11;;;;;;;57.42;30.08;;;-1.50;99.90;;;;;;4783511;29;20039;-90
2021/12/21 19:06:37;;;;;;;60.08;32.42;;;-1.50;99.90;;;;;;4791714;29;20137;-89
2021/12/21 19:09:06;;;;;;;56.08;31.25;;;-1.50;99.90;;;;;;4779064;29;20047;-90
2021/12/21 19:11:32;;;;;;;53.25;31.20;;;-1.50;99.90;;;;;;4771104;29;20573;-90
2021/12/21 19:14:01;;;;;;;77.97;36.17;;;-1.50;99.90;;;;;;4768771;29;20042;-90
2021/12/21 19:16:26;;;;;;;69.25;33.00;;;-1.60;99.90;;;;;;4784858;29;20085;-90
2021/12/21 19:18:52;;;;;;;60.85;31.50;;;-1.50;99.90;;;;;;4778326;29;20083;-90
2021/12/21 19:21:18;;;;;;;58.95;30.08;;;-1.60;99.90;;;;;;4768112;29;20051;-90
2021/12/21 19:23:45;;;;;;;60.30;31.40;;;-1.50;99.90;;;;;;4764468;29;20047;-90
2021/12/21 19:26:11;;;;;;;65.82;33.28;;;-1.60;99.90;;;;;;4780445;29;20042;-91
2021/12/21 19:28:37;;;;;;;70.32;35.90;;;-1.60;99.90;;;;;;4750691;29;20108;-91
2021/12/21 19:31:04;;;;;;;55.92;30.98;;;-1.60;99.90;;;;;;4765878;29;20046;-90
2021/12/21 19:33:35;;;;;;;59.10;29.92;;;-1.50;99.90;;;;;;4775390;29;20055;-91
2021/12/21 19:36:03;;;;;;;52.20;29.60;;;-1.50;99.90;;;;;;4780292;29;20055;-91
2021/12/21 19:38:29;;;;;;;65.55;33.40;;;-1.60;99.90;;;;;;4777377;29;20393;-87
2021/12/21 19:40:55;;;;;;;67.25;32.55;;;-1.60;99.90;;;;;;4778126;29;20046;-89
2021/12/21 19:43:22;;;;;;;66.03;34.13;;;-1.60;99.90;;;;;;4763991;29;20179;-89
2021/12/21 19:45:49;;;;;;;59.17;31.15;;;-1.60;99.90;;;;;;4764110;29;20047;-89
2021/12/21 19:48:15;;;;;;;65.43;31.75;;;-1.60;99.90;;;;;;4780575;29;20476;-89
2021/12/21 19:50:46;;;;;;;61.60;32.08;;;-1.60;99.90;;;;;;4777328;29;20047;-88
2021/12/21 19:53:12;;;;;;;66.63;33.05;;;-1.70;99.90;;;;;;4779032;29;20122;-89
2021/12/21 19:55:38;;;;;;;64.65;32.65;;;-1.70;99.90;;;;;;4782763;29;20140;-88
2021/12/21 19:58:04;;;;;;;54.95;29.80;;;-1.70;99.90;;;;;;4778622;29;20407;-89
2021/12/21 20:00:31;;;;;;;64.20;32.90;;;-1.70;99.90;;;;;;4784725;29;20561;-89
2021/12/21 20:02:58;;;;;;;71.78;34.45;;;-1.70;99.90;;;;;;4771711;29;20047;-88
2021/12/21 20:05:25;;;;;;;76.80;37.33;;;-1.70;99.90;;;;;;4796078;29;20039;-89
2021/12/21 20:07:51;;;;;;;61.92;33.47;;;-1.70;99.90;;;;;;4778076;29;20050;-89
2021/12/21 20:10:25;;;;;;;70.57;33.45;;;-1.70;99.90;;;;;;4780627;29;20042;-89
2021/12/21 20:13:07;;;;;;;67.47;33.00;;;-1.70;99.90;;;;;;4783844;29;20046;-89
2021/12/21 20:15:37;;;;;;;71.57;37.20;;;-1.70;99.90;;;;;;4804699;29;20107;-90
2021/12/21 20:18:10;;;;;;;70.40;33.75;;;-1.70;99.90;;;;;;4806583;29;20118;-92
2021/12/21 20:20:38;;;;;;;;;;;-1.70;99.90;;;;;;4780683;29;20207;-91
2021/12/21 20:23:05;;;;;;;55.00;29.15;;;-1.80;99.90;;;;;;4779007;29;20021;-92
2021/12/21 20:25:31;;;;;;;62.25;31.15;;;-1.80;99.90;;;;;;4772384;29;20220;-91
2021/12/21 20:27:58;;;;;;;55.30;29.00;;;-1.90;99.90;;;;;;4782508;29;20047;-92
2021/12/21 20:30:24;;;;;;;54.05;28.50;;;-1.90;99.90;;;;;;4768922;29;20125;-91
2021/12/21 20:32:50;;;;;;;59.40;28.90;;;-1.80;99.90;;;;;;4766410;29;20122;-90
2021/12/21 20:35:17;;;;;;;78.15;34.13;;;-1.90;99.90;;;;;;4786536;29;20127;-90
2021/12/21 20:37:43;;;;;;;61.47;30.88;;;-1.90;99.90;;;;;;4782334;29;20506;-90
2021/12/21 20:40:11;;;;;;;62.10;30.63;;;-1.90;99.90;;;;;;4759984;29;20071;-90
2021/12/21 20:42:38;;;;;;;66.85;31.88;;;-2.00;99.90;;;;;;4783846;29;20078;-91
2021/12/21 20:45:07;;;;;;;66.22;29.23;;;-1.90;99.90;;;;;;4768283;29;20524;-90
2021/12/21 20:47:33;;;;;;;58.53;28.70;;;-2.00;99.90;;;;;;4785736;29;20054;-90
2021/12/21 20:49:59;;;;;;;60.40;30.38;;;-1.90;99.90;;;;;;4760708;29;20047;-87
2021/12/21 20:52:25;;;;;;;67.32;29.92;;;-1.90;99.90;;;;;;4767608;29;20403;-88
2021/12/21 20:54:51;;;;;;;56.20;28.88;;;-1.90;99.90;;;;;;4764651;29;20047;-87
2021/12/21 20:57:17;;;;;;;60.83;28.70;;;-2.00;99.90;;;;;;4767486;29;20035;-88
2021/12/21 20:59:45;;;;;;;56.22;28.55;;;-2.00;99.90;;;;;;4771071;29;20079;-88
2021/12/21 21:02:13;;;;;;;66.80;30.33;;;-2.00;99.90;;;;;;4763587;29;20108;-88
2021/12/21 21:04:39;;;;;;;68.43;30.67;;;-2.00;99.90;;;;;;4776276;29;20103;-88
2021/12/21 21:07:05;;;;;;;57.25;29.25;;;-2.00;99.90;;;;;;4782543;29;20038;-88
2021/12/21 21:09:35;;;;;;;75.13;31.40;;;-2.00;99.90;;;;;;4762125;29;20473;-87
2021/12/21 21:12:05;;;;;;;69.75;30.77;;;-2.00;99.90;;;;;;4778710;29;20507;-88
2021/12/21 21:14:32;;;;;;;69.82;32.15;;;-2.00;99.90;;;;;;4780099;29;20119;-87
2021/12/21 21:16:57;;;;;;;81.18;33.80;;;-2.00;99.90;;;;;;4784188;29;20052;-87
2021/12/21 21:19:24;;;;;;;83.68;36.08;;;-1.90;99.90;;;;;;4767348;29;20042;-87
2021/12/21 21:21:49;;;;;;;84.85;36.05;;;-1.90;99.90;;;;;;4780134;29;20448;-87
2021/12/21 21:24:16;;;;;;;86.57;34.83;;;-1.80;99.90;;;;;;4762837;29;20249;-86
2021/12/21 21:26:41;;;;;;;86.93;34.95;;;-1.80;99.90;;;;;;4767009;29;20067;-87
2021/12/21 21:29:07;;;;;;;74.88;33.33;;;-1.70;99.90;;;;;;4760914;29;20154;-87
2021/12/21 21:31:34;;;;;;;73.03;33.10;;;-1.70;99.90;;;;;;4758893;29;20039;-90
2021/12/21 21:34:00;;;;;;;67.95;31.13;;;-1.70;99.90;;;;;;4765420;29;20043;-90
2021/12/21 21:36:26;;;;;;;66.05;29.77;;;-1.60;99.90;;;;;;4776779;29;20043;-90
2021/12/21 21:38:52;;;;;;;60.63;28.85;;;-1.50;99.90;;;;;;4778709;29;20401;-90
2021/12/21 21:41:19;;;;;;;57.08;26.23;;;-1.50;99.90;;;;;;4779753;29;20407;-90
2021/12/21 21:43:45;;;;;;;59.65;26.58;;;-1.50;99.90;;;;;;4766155;29;20116;-88
2021/12/21 21:46:11;;;;;;;57.15;24.92;;;-1.60;99.90;;;;;;4765758;29;20546;-88
2021/12/21 21:48:37;;;;;;;42.35;22.95;;;-1.60;99.90;;;;;;4763135;29;20140;-90
2021/12/21 21:51:04;;;;;;;46.80;23.77;;;-1.70;99.90;;;;;;4763353;29;20407;-89
2021/12/21 21:56:06;;;;;;;59.05;24.30;;;-1.80;99.90;;;;;;4779297;29;20051;-89
2021/12/21 21:58:33;;;;;;;53.58;25.00;;;-1.80;99.90;;;;;;4786034;29;20054;-90
2021/12/21 22:00:58;;;;;;;57.75;24.98;;;-1.80;99.90;;;;;;4747811;29;20602;-89
2021/12/21 22:03:24;;;;;;;51.03;23.98;;;-1.80;99.90;;;;;;4760517;29;20085;-90
2021/12/21 22:05:51;;;;;;;53.60;25.15;;;-1.80;99.90;;;;;;4759984;29;20078;-90
2021/12/21 22:08:17;;;;;;;48.10;22.75;;;-1.80;99.90;;;;;;4761716;29;20055;-90
2021/12/21 22:10:43;;;;;;;43.80;20.75;;;-1.90;99.90;;;;;;4765977;29;20397;-89
2021/12/21 22:13:15;;;;;;;39.20;20.25;;;-1.90;99.90;;;;;;4760034;29;20046;-89
2021/12/21 22:15:41;;;;;;;40.63;20.73;;;-2.00;99.90;;;;;;4764088;29;20054;-89
2021/12/21 22:18:07;;;;;;;48.60;22.92;;;-2.00;99.90;;;;;;4749377;29;20043;-89
2021/12/21 22:20:33;;;;;;;48.08;21.63;;;-2.00;99.90;;;;;;4758341;29;20588;-90
2021/12/21 22:22:58;;;;;;;54.33;23.70;;;-2.10;99.90;;;;;;4768893;29;20389;-89
2021/12/21 22:25:24;;;;;;;44.58;23.63;;;-2.10;99.90;;;;;;4790548;29;20054;-88
2021/12/21 22:27:50;;;;;;;51.55;24.08;;;-2.10;99.90;;;;;;4791088;29;20068;-88
2021/12/21 22:30:16;;;;;;;54.83;24.92;;;-2.20;99.90;;;;;;4764219;29;20499;-89
2021/12/21 22:32:42;;;;;;;55.80;25.05;;;-2.20;99.90;;;;;;4763237;29;20050;-89
2021/12/21 22:35:08;;;;;;;52.30;24.38;;;-2.10;99.90;;;;;;4747985;29;20718;-89
2021/12/21 22:37:33;;;;;;;51.40;24.15;;;-2.10;99.90;;;;;;4759664;29;20055;-89
2021/12/21 22:40:00;;;;;;;57.50;26.95;;;-2.20;99.90;;;;;;4777877;29;20066;-90
2021/12/21 22:42:26;;;;;;;61.60;25.67;;;-2.20;99.90;;;;;;4771607;29;20046;-89
2021/12/21 22:44:52;;;;;;;60.53;25.55;;;-2.10;99.90;;;;;;4760281;29;20054;-90
2021/12/21 22:47:17;;;;;;;58.05;25.85;;;-2.20;99.90;;;;;;4745065;29;20035;-89
2021/12/21 22:49:43;;;;;;;57.60;26.13;;;-2.20;99.90;;;;;;4763019;29;20089;-86
2021/12/21 22:52:09;;;;;;;58.13;24.00;;;-2.20;99.90;;;;;;4761790;29;20054;-89
2021/12/21 22:54:35;;;;;;;53.22;24.30;;;-2.20;99.90;;;;;;4764634;29;20054;-87
2021/12/21 22:57:01;;;;;;;60.58;24.50;;;-2.30;99.90;;;;;;4762688;29;20059;-87
2021/12/21 22:59:27;;;;;;;50.00;22.42;;;-2.30;99.90;;;;;;4791656;29;20047;-90
2021/12/21 23:01:54;;;;;;;55.42;23.30;;;-2.30;99.90;;;;;;4749988;29;20043;-87
2021/12/21 23:04:19;;;;;;;61.08;24.88;;;-2.30;99.90;;;;;;4764227;29;20126;-87
2021/12/21 23:06:45;;;;;;;54.00;24.00;;;-2.40;99.90;;;;;;4766459;29;20829;-87
2021/12/21 23:09:11;;;;;;;61.03;25.20;;;-2.40;99.90;;;;;;4749549;29;20051;-87
2021/12/21 23:11:37;;;;;;;54.75;25.52;;;-2.40;99.90;;;;;;4750785;29;20119;-86
2021/12/21 23:14:03;;;;;;;55.17;23.65;;;-2.40;99.90;;;;;;4751757;29;20040;-87
2021/12/21 23:16:28;;;;;;;72.80;26.55;;;-2.40;99.90;;;;;;4777362;29;20742;-86
2021/12/21 23:18:54;;;;;;;70.55;26.67;;;-2.50;99.90;;;;;;4776754;29;20073;-87
2021/12/21 23:21:20;;;;;;;63.83;26.52;;;-2.40;99.90;;;;;;4780664;29;20166;-87
2021/12/21 23:23:46;;;;;;;62.88;25.83;;;-2.40;99.90;;;;;;4768541;29;20038;-87
2021/12/21 23:26:13;;;;;;;65.05;25.67;;;-2.40;99.90;;;;;;4763117;29;20092;-86